createdAt,value
2023-03-06T00:00:51.858Z,19.00
2023-03-06T00:03:22.640Z,19.80
2023-03-06T00:05:51.023Z,17.58
2023-03-06T00:08:19.188Z,20.43
2023-03-06T00:10:47.454Z,17.67
2023-03-06T00:13:18.817Z,20.42
2023-03-06T00:15:47.226Z,18.13
2023-03-06T00:18:16.015Z,22.83
2023-03-06T00:20:45.686Z,19.37
2023-03-06T00:23:14.069Z,19.67
2023-03-06T00:25:43.805Z,18.17
2023-03-06T00:28:14.817Z,19.10
2023-03-06T00:30:43.825Z,22.40
2023-03-06T00:33:12.078Z,20.87
2023-03-06T00:35:40.744Z,19.45
2023-03-06T00:38:12.167Z,19.25
2023-03-06T00:40:40.503Z,19.05
2023-03-06T00:43:08.601Z,21.75
2023-03-06T00:45:37.145Z,18.53
2023-03-06T00:48:06.069Z,19.05
2023-03-06T00:50:35.155Z,18.42
2023-03-06T00:53:03.256Z,18.80
2023-03-06T00:55:33.435Z,19.67
2023-03-06T00:58:01.732Z,22.03
2023-03-06T01:00:30.080Z,18.02
2023-03-06T01:02:58.164Z,18.85
2023-03-06T01:05:26.527Z,19.83
2023-03-06T01:07:54.709Z,18.15
2023-03-06T01:10:23.146Z,19.47
2023-03-06T01:12:52.556Z,18.15
2023-03-06T01:15:21.747Z,17.80
2023-03-06T01:17:53.499Z,16.67
2023-03-06T01:20:21.926Z,15.98
2023-03-06T01:22:49.944Z,18.67
2023-03-06T01:25:18.450Z,17.92
2023-03-06T01:27:46.719Z,17.27
2023-03-06T01:30:16.540Z,17.88
2023-03-06T01:32:44.518Z,17.92
2023-03-06T01:35:13.161Z,18.13
2023-03-06T01:37:41.708Z,17.23
2023-03-06T01:40:12.158Z,17.67
2023-03-06T01:42:40.308Z,17.80
2023-03-06T01:45:30.705Z,17.08
2023-03-06T01:48:00.383Z,18.70
2023-03-06T01:50:29.219Z,18.08
2023-03-06T01:52:59.382Z,16.90
2023-03-06T01:55:29.756Z,20.65
2023-03-06T01:57:59.158Z,18.88
2023-03-06T02:00:30.197Z,22.30
2023-03-06T02:03:05.134Z,21.00
2023-03-06T02:05:33.609Z,18.45
2023-03-06T02:08:03.387Z,22.20
2023-03-06T02:10:32.110Z,19.23
2023-03-06T02:13:00.525Z,17.70
2023-03-06T02:15:30.037Z,17.67
2023-03-06T02:17:58.299Z,21.73
2023-03-06T02:20:30.942Z,18.58
2023-03-06T02:23:03.144Z,20.27
2023-03-06T02:25:38.516Z,18.17
2023-03-06T02:28:08.171Z,19.20
2023-03-06T02:30:37.611Z,19.35
2023-03-06T02:33:06.604Z,18.90
2023-03-06T02:35:36.646Z,16.88
2023-03-06T02:38:07.545Z,17.87
2023-03-06T02:40:37.657Z,16.67
2023-03-06T02:43:06.497Z,17.95
2023-03-06T02:45:38.177Z,19.95
2023-03-06T02:48:07.184Z,17.98
2023-03-06T02:50:35.606Z,16.73
2023-03-06T02:53:03.731Z,17.23
2023-03-06T02:55:32.616Z,18.42
2023-03-06T02:58:03.371Z,18.30
2023-03-06T03:00:32.734Z,17.48
2023-03-06T03:03:03.809Z,19.90
2023-03-06T03:05:32.718Z,16.10
2023-03-06T03:08:07.951Z,19.38
2023-03-06T03:10:37.192Z,15.25
2023-03-06T03:13:06.571Z,18.70
2023-03-06T03:15:36.250Z,17.60
2023-03-06T03:18:04.791Z,19.42
2023-03-06T03:20:33.220Z,16.55
2023-03-06T03:23:01.380Z,16.95
2023-03-06T03:25:29.683Z,17.23
2023-03-06T03:27:59.479Z,16.33
2023-03-06T03:30:29.568Z,18.10
2023-03-06T03:32:57.699Z,18.02
2023-03-06T03:35:26.668Z,19.15
2023-03-06T03:37:55.192Z,17.92
2023-03-06T03:40:23.831Z,17.70
2023-03-06T03:42:52.676Z,20.00
2023-03-06T03:45:22.158Z,17.15
2023-03-06T03:47:51.735Z,19.42
2023-03-06T03:50:20.564Z,16.83
2023-03-06T03:52:49.033Z,16.93
2023-03-06T03:55:17.824Z,16.25
2023-03-06T03:57:45.908Z,16.88
2023-03-06T04:00:16.308Z,15.38
2023-03-06T04:03:00.748Z,16.50
2023-03-06T04:05:34.157Z,16.33
2023-03-06T04:08:05.422Z,17.23
2023-03-06T04:10:36.394Z,19.27
2023-03-06T04:13:04.892Z,16.05
2023-03-06T04:15:33.484Z,19.52
2023-03-06T04:18:04.204Z,19.43
2023-03-06T04:20:32.745Z,19.52
2023-03-06T04:23:02.024Z,16.48
2023-03-06T04:25:30.450Z,18.70
2023-03-06T04:28:00.302Z,16.63
2023-03-06T04:30:29.314Z,20.83
2023-03-06T04:32:57.688Z,20.98
2023-03-06T04:35:28.034Z,16.73
2023-03-06T04:38:01.610Z,18.65
2023-03-06T04:40:35.157Z,17.55
2023-03-06T04:43:04.762Z,18.63
2023-03-06T04:45:34.004Z,17.27
2023-03-06T04:48:02.027Z,17.35
2023-03-06T04:50:32.582Z,19.02
2023-03-06T04:53:01.481Z,17.30
2023-03-06T04:55:29.995Z,16.67
2023-03-06T04:57:58.889Z,17.40
2023-03-06T05:00:30.407Z,17.60
2023-03-06T05:02:59.792Z,19.48
2023-03-06T05:05:28.676Z,18.30
2023-03-06T05:07:58.150Z,17.57
2023-03-06T05:10:26.466Z,17.67
2023-03-06T05:12:54.466Z,17.58
2023-03-06T05:15:22.905Z,20.23
2023-03-06T05:17:50.989Z,17.63
2023-03-06T05:20:19.696Z,16.93
2023-03-06T05:22:47.826Z,17.88
2023-03-06T05:25:17.626Z,17.25
2023-03-06T05:27:45.801Z,20.20
2023-03-06T05:30:15.217Z,17.65
2023-03-06T05:32:43.681Z,19.00
2023-03-06T05:35:17.958Z,17.75
2023-03-06T05:37:46.464Z,16.65
2023-03-06T05:40:17.185Z,17.42
2023-03-06T05:42:45.632Z,18.08
2023-03-06T05:45:14.000Z,17.93
2023-03-06T05:47:42.054Z,19.35
2023-03-06T05:50:11.688Z,22.23
2023-03-06T05:52:40.500Z,17.33
2023-03-06T05:55:11.032Z,17.70
2023-03-06T05:57:40.518Z,18.30
2023-03-06T06:00:10.351Z,18.02
2023-03-06T06:02:41.436Z,18.65
2023-03-06T06:05:12.969Z,20.00
2023-03-06T06:07:41.460Z,18.10
2023-03-06T06:10:11.501Z,17.27
2023-03-06T06:12:40.878Z,21.77
2023-03-06T06:15:09.753Z,17.13
2023-03-06T06:17:37.738Z,16.95
2023-03-06T06:20:06.873Z,20.33
2023-03-06T06:22:37.134Z,18.17
2023-03-06T06:25:06.155Z,21.48
2023-03-06T06:27:34.177Z,21.85
2023-03-06T06:30:04.170Z,23.67
2023-03-06T06:32:32.316Z,20.90
2023-03-06T06:35:00.747Z,19.43
2023-03-06T06:37:28.877Z,18.45
2023-03-06T06:39:57.343Z,23.65
2023-03-06T06:42:38.965Z,19.48
2023-03-06T06:45:11.409Z,18.75
2023-03-06T06:47:41.214Z,20.17
2023-03-06T06:50:12.724Z,22.63
2023-03-06T06:52:40.868Z,21.83
2023-03-06T06:55:10.053Z,20.08
2023-03-06T06:57:38.141Z,21.30
2023-03-06T07:00:07.752Z,18.70
2023-03-06T07:02:37.293Z,20.33
2023-03-06T07:05:06.316Z,20.27
2023-03-06T07:07:36.420Z,18.70
2023-03-06T07:10:06.456Z,18.98
2023-03-06T07:12:35.229Z,21.97
2023-03-06T07:15:04.425Z,22.00
2023-03-06T07:17:32.643Z,19.35
2023-03-06T07:20:02.783Z,23.08
2023-03-06T07:22:41.466Z,20.17
2023-03-06T07:25:17.274Z,20.67
2023-03-06T07:27:52.713Z,19.73
2023-03-06T07:30:25.389Z,19.48
2023-03-06T07:32:54.963Z,20.73
2023-03-06T07:35:27.377Z,20.98
2023-03-06T07:37:55.917Z,19.27
2023-03-06T07:40:25.087Z,18.25
2023-03-06T07:42:56.529Z,19.73
2023-03-06T07:45:36.135Z,19.35
2023-03-06T07:48:05.678Z,21.02
2023-03-06T07:50:36.231Z,19.37
2023-03-06T07:53:04.339Z,20.92
2023-03-06T07:55:32.577Z,20.05
2023-03-06T07:58:00.756Z,20.55
2023-03-06T08:00:29.149Z,17.55
2023-03-06T08:02:57.250Z,20.87
2023-03-06T08:05:25.581Z,21.15
2023-03-06T08:07:56.392Z,24.23
2023-03-06T08:10:24.646Z,24.10
2023-03-06T08:12:52.734Z,21.33
2023-03-06T08:15:21.173Z,21.57
2023-03-06T08:17:49.328Z,21.27
2023-03-06T08:20:18.503Z,20.27
2023-03-06T08:22:46.720Z,18.25
2023-03-06T08:25:16.554Z,23.08
2023-03-06T08:27:46.651Z,19.83
2023-03-06T08:30:15.301Z,19.60
2023-03-06T08:32:43.395Z,19.58
2023-03-06T08:35:11.914Z,20.05
2023-03-06T08:37:40.131Z,20.77
2023-03-06T08:40:10.149Z,20.83
2023-03-06T08:42:39.615Z,20.75
2023-03-06T08:45:09.405Z,20.17
2023-03-06T08:47:37.462Z,20.75
2023-03-06T08:50:06.359Z,21.67
2023-03-06T08:52:34.373Z,20.73
2023-03-06T08:55:03.529Z,17.75
2023-03-06T08:57:31.870Z,20.17
2023-03-06T09:00:01.588Z,21.38
2023-03-06T09:02:29.751Z,19.33
2023-03-06T09:04:59.370Z,20.07
2023-03-06T09:07:27.439Z,19.10
2023-03-06T09:09:57.096Z,18.17
2023-03-06T09:12:25.235Z,18.23
2023-03-06T09:14:53.883Z,18.88
2023-03-06T09:17:23.287Z,17.57
2023-03-06T09:19:52.343Z,17.63
2023-03-06T09:22:20.379Z,19.55
2023-03-06T09:24:49.086Z,18.42
2023-03-06T09:27:17.300Z,23.67
2023-03-06T09:29:45.601Z,17.13
2023-03-06T09:32:13.875Z,18.02
2023-03-06T09:34:45.982Z,20.80
2023-03-06T09:37:15.293Z,16.30
2023-03-06T09:39:45.180Z,16.58
2023-03-06T09:42:16.936Z,17.40
2023-03-06T09:44:47.408Z,18.60
2023-03-06T09:47:28.649Z,18.30
2023-03-06T09:50:20.241Z,19.25
2023-03-06T09:53:01.701Z,21.85
2023-03-06T09:55:32.325Z,20.47
2023-03-06T09:58:07.095Z,18.88
2023-03-06T10:00:40.568Z,19.77
2023-03-06T10:03:22.758Z,18.35
2023-03-06T10:05:54.833Z,20.48
2023-03-06T10:08:26.444Z,20.67
2023-03-06T10:11:01.930Z,19.63
2023-03-06T10:13:36.747Z,22.65
2023-03-06T10:16:14.277Z,20.58
2023-03-06T10:18:42.424Z,20.13
2023-03-06T10:21:24.097Z,19.53
2023-03-06T10:23:54.442Z,21.05
2023-03-06T10:26:25.118Z,20.60
2023-03-06T10:29:02.444Z,19.45
2023-03-06T10:31:30.863Z,21.65
2023-03-06T10:34:00.134Z,19.47
2023-03-06T10:36:30.417Z,20.02
2023-03-06T10:38:59.577Z,28.33
2023-03-06T10:41:29.721Z,21.02
2023-03-06T10:44:23.632Z,20.77
2023-03-06T10:46:53.628Z,21.80
2023-03-06T10:49:30.446Z,22.20
2023-03-06T10:52:02.745Z,19.88
2023-03-06T10:54:32.801Z,21.08
2023-03-06T10:57:18.774Z,19.13
2023-03-06T10:59:52.211Z,19.40
2023-03-06T11:02:28.240Z,20.63
2023-03-06T11:04:57.284Z,21.40
2023-03-06T11:07:28.403Z,18.02
2023-03-06T11:10:03.271Z,20.08
2023-03-06T11:12:32.995Z,20.47
2023-03-06T11:15:18.417Z,20.13
2023-03-06T11:17:55.258Z,20.15
2023-03-06T11:20:25.838Z,19.05
2023-03-06T11:22:59.576Z,19.73
2023-03-06T11:25:31.444Z,18.87
2023-03-06T11:28:01.840Z,19.63
2023-03-06T11:30:36.098Z,19.65
2023-03-06T11:33:11.150Z,17.92
2023-03-06T11:35:48.127Z,19.02
2023-03-06T11:38:21.744Z,19.20
2023-03-06T11:40:53.811Z,19.55
2023-03-06T11:43:24.777Z,17.27
2023-03-06T11:45:58.054Z,16.95
2023-03-06T11:48:29.835Z,18.10
2023-03-06T11:51:04.830Z,17.00
2023-03-06T11:53:37.740Z,19.63
2023-03-06T11:56:12.430Z,18.13
2023-03-06T11:58:53.119Z,14.20
2023-03-06T12:01:25.243Z,15.30
2023-03-06T12:03:57.947Z,15.73
2023-03-06T12:06:33.034Z,14.75
2023-03-06T12:09:17.149Z,15.57
2023-03-06T12:11:47.464Z,15.23
2023-03-06T12:14:26.134Z,15.52
2023-03-06T12:17:04.006Z,14.87
2023-03-06T12:19:42.325Z,16.58
2023-03-06T12:22:23.131Z,15.73
2023-03-06T12:25:06.110Z,14.73
2023-03-06T12:27:42.588Z,16.55
2023-03-06T12:30:39.543Z,14.27
2023-03-06T12:33:16.063Z,14.43
2023-03-06T12:36:07.025Z,15.45
2023-03-06T12:38:46.547Z,15.77
2023-03-06T12:41:25.122Z,16.05
2023-03-06T12:44:02.433Z,16.10
2023-03-06T12:46:31.125Z,15.05
2023-03-06T12:49:04.705Z,14.82
2023-03-06T12:51:33.921Z,16.95
2023-03-06T12:54:03.227Z,14.30
2023-03-06T12:56:34.105Z,14.17
2023-03-06T12:59:02.875Z,15.20
2023-03-06T13:01:51.826Z,13.18
2023-03-06T13:04:29.753Z,12.55
2023-03-06T13:07:06.995Z,10.77
2023-03-06T13:09:39.896Z,12.30
2023-03-06T13:12:27.154Z,12.45
2023-03-06T13:14:58.387Z,12.90
2023-03-06T13:17:44.401Z,12.63
2023-03-06T13:20:29.925Z,12.13
2023-03-06T13:22:58.761Z,13.97
2023-03-06T13:25:39.706Z,13.20
2023-03-06T13:28:24.141Z,13.60
2023-03-06T13:30:53.268Z,14.57
2023-03-06T13:33:53.644Z,13.10
2023-03-06T13:36:24.965Z,13.83
2023-03-06T13:38:58.548Z,14.25
2023-03-06T13:41:43.804Z,12.75
2023-03-06T13:44:49.577Z,11.75
2023-03-06T13:47:31.106Z,13.35
2023-03-06T13:49:59.899Z,10.80
2023-03-06T13:52:37.003Z,12.73
2023-03-06T13:55:13.648Z,11.50
2023-03-06T13:57:52.077Z,14.13
2023-03-06T14:00:55.761Z,14.98
2023-03-06T14:03:50.970Z,14.73
2023-03-06T14:06:42.348Z,13.73
2023-03-06T14:09:16.835Z,14.90
2023-03-06T14:11:50.857Z,15.15
2023-03-06T14:14:19.245Z,14.30
2023-03-06T14:16:50.871Z,15.70
2023-03-06T14:19:25.466Z,16.13
2023-03-06T14:21:57.761Z,18.27
2023-03-06T14:24:32.713Z,19.25
2023-03-06T14:27:01.092Z,18.17
2023-03-06T14:29:30.449Z,17.47
2023-03-06T14:32:00.306Z,19.42
2023-03-06T14:34:31.618Z,18.10
2023-03-06T14:37:01.713Z,16.83
2023-03-06T14:39:35.132Z,20.10
2023-03-06T14:42:08.231Z,18.40
2023-03-06T14:44:36.433Z,17.85
2023-03-06T14:47:23.182Z,18.90
2023-03-06T14:50:24.066Z,18.65
2023-03-06T14:52:56.850Z,17.85
2023-03-06T14:55:27.634Z,15.57
2023-03-06T14:57:58.881Z,17.88
2023-03-06T15:00:31.136Z,15.75
2023-03-06T15:02:59.811Z,14.57
2023-03-06T15:05:30.471Z,13.02
2023-03-06T15:08:02.964Z,14.63
2023-03-06T15:10:32.501Z,15.00
2023-03-06T15:13:09.253Z,11.80
2023-03-06T15:15:37.311Z,13.05
2023-03-06T15:18:28.598Z,20.35
2023-03-06T15:21:07.742Z,25.90
2023-03-06T15:23:38.206Z,22.92
2023-03-06T15:26:21.177Z,12.55
2023-03-06T15:29:03.382Z,15.05
2023-03-06T15:31:37.943Z,13.45
2023-03-06T15:34:27.603Z,11.60
2023-03-06T15:36:58.652Z,15.38
2023-03-06T15:39:29.222Z,13.13
2023-03-06T15:41:58.648Z,12.93
2023-03-06T15:44:27.528Z,12.60
2023-03-06T15:47:07.764Z,14.57
2023-03-06T15:49:37.996Z,12.85
2023-03-06T15:52:08.056Z,13.38
2023-03-06T15:54:36.599Z,14.00
2023-03-06T15:57:06.629Z,16.17
2023-03-06T15:59:39.591Z,15.60
2023-03-06T16:02:15.671Z,12.93
2023-03-06T16:04:44.321Z,14.07
2023-03-06T16:07:14.003Z,26.83
2023-03-06T16:09:42.551Z,29.05
2023-03-06T16:12:16.221Z,18.37
2023-03-06T16:14:44.918Z,15.70
2023-03-06T16:17:13.803Z,16.55
2023-03-06T16:19:42.968Z,15.18
2023-03-06T16:22:11.136Z,15.75
2023-03-06T16:24:41.646Z,16.23
2023-03-06T16:27:16.719Z,15.65
2023-03-06T16:29:45.249Z,15.77
2023-03-06T16:32:13.646Z,16.40
2023-03-06T16:34:41.919Z,17.08
2023-03-06T16:37:10.939Z,18.70
2023-03-06T16:39:40.690Z,19.05
2023-03-06T16:42:08.809Z,15.48
2023-03-06T16:44:37.200Z,17.20
2023-03-06T16:47:05.725Z,18.25
2023-03-06T16:49:34.390Z,15.67
2023-03-06T16:52:04.457Z,15.10
2023-03-06T16:54:32.787Z,18.58
2023-03-06T16:57:02.234Z,15.48
2023-03-06T16:59:31.612Z,13.80
2023-03-06T17:02:00.035Z,15.83
2023-03-06T17:04:28.483Z,15.82
2023-03-06T17:06:56.650Z,16.40
2023-03-06T17:09:25.106Z,17.17
2023-03-06T17:11:53.065Z,15.85
2023-03-06T17:14:22.826Z,17.97
2023-03-06T17:16:53.574Z,17.95
2023-03-06T17:19:23.121Z,18.35
2023-03-06T17:21:51.573Z,16.73
2023-03-06T17:24:29.949Z,17.48
2023-03-06T17:27:18.123Z,16.23
2023-03-06T17:30:24.847Z,16.85
2023-03-06T17:33:03.187Z,16.52
2023-03-06T17:35:49.851Z,18.88
2023-03-06T17:38:18.073Z,17.02
2023-03-06T17:40:46.511Z,21.13
2023-03-06T17:43:22.463Z,16.75
2023-03-06T17:46:05.516Z,18.27
2023-03-06T17:49:04.996Z,18.35
2023-03-06T17:51:51.610Z,17.10
2023-03-06T17:54:43.084Z,17.67
2023-03-06T17:57:11.437Z,19.10
2023-03-06T17:59:39.593Z,18.70
2023-03-06T18:02:10.986Z,18.10
2023-03-06T18:04:39.156Z,18.15
2023-03-06T18:07:07.526Z,20.57
2023-03-06T18:09:35.827Z,19.05
2023-03-06T18:12:04.754Z,18.08
2023-03-06T18:14:33.219Z,19.70
2023-03-06T18:17:01.607Z,16.23
2023-03-06T18:19:31.142Z,15.03
2023-03-06T18:22:00.499Z,17.52
2023-03-06T18:24:28.507Z,21.83
2023-03-06T18:26:56.872Z,22.70
2023-03-06T18:29:24.985Z,25.67
2023-03-06T18:31:56.772Z,38.80
2023-03-06T18:34:25.001Z,26.33
2023-03-06T18:36:54.815Z,19.20
2023-03-06T18:39:24.604Z,18.42
2023-03-06T18:41:53.434Z,16.38
2023-03-06T18:44:21.582Z,19.93
2023-03-06T18:46:49.940Z,18.70
2023-03-06T18:49:19.890Z,19.25
2023-03-06T18:51:50.543Z,19.95
2023-03-06T18:54:20.087Z,23.67
2023-03-06T18:56:48.664Z,20.27
2023-03-06T18:59:18.883Z,17.75
2023-03-06T19:01:48.060Z,17.23
2023-03-06T19:04:16.319Z,18.08
2023-03-06T19:06:44.675Z,18.73
2023-03-06T19:09:12.783Z,16.93
2023-03-06T19:11:43.693Z,19.13
2023-03-06T19:14:11.943Z,16.83
2023-03-06T19:16:40.463Z,18.17
2023-03-06T19:19:08.619Z,19.48
2023-03-06T19:21:36.979Z,18.27
2023-03-06T19:24:06.688Z,20.92
2023-03-06T19:26:34.993Z,19.83
2023-03-06T19:29:04.472Z,19.75
2023-03-06T19:31:32.944Z,19.02
2023-03-06T19:34:01.101Z,18.63
2023-03-06T19:36:33.585Z,17.40
2023-03-06T19:39:04.242Z,16.27
2023-03-06T19:41:32.745Z,20.65
2023-03-06T19:44:02.553Z,19.60
2023-03-06T19:46:32.694Z,17.93
2023-03-06T19:49:02.161Z,16.65
2023-03-06T19:51:30.646Z,21.23
2023-03-06T19:53:59.217Z,19.42
2023-03-06T19:56:28.827Z,19.33
2023-03-06T19:58:57.309Z,17.40
2023-03-06T20:01:27.264Z,18.15
2023-03-06T20:03:58.904Z,17.42
2023-03-06T20:06:29.422Z,18.55
2023-03-06T20:08:57.624Z,18.10
2023-03-06T20:11:29.652Z,19.27
2023-03-06T20:13:58.536Z,20.17
2023-03-06T20:16:27.796Z,18.73
2023-03-06T20:18:58.982Z,21.23
2023-03-06T20:21:28.007Z,18.55
2023-03-06T20:23:57.891Z,20.47
2023-03-06T20:26:27.749Z,20.00
2023-03-06T20:28:56.220Z,19.45
2023-03-06T20:31:26.171Z,18.98
2023-03-06T20:33:57.631Z,19.33
2023-03-06T20:36:28.877Z,19.50
2023-03-06T20:38:57.627Z,20.35
2023-03-06T20:41:27.650Z,21.67
2023-03-06T20:43:55.820Z,22.30
2023-03-06T20:46:24.538Z,21.33
2023-03-06T20:48:54.153Z,21.30
2023-03-06T20:51:25.501Z,20.25
2023-03-06T20:53:53.999Z,20.05
2023-03-06T20:56:23.661Z,20.10
2023-03-06T20:58:52.400Z,18.75
2023-03-06T21:01:21.781Z,20.90
2023-03-06T21:03:50.128Z,18.88
2023-03-06T21:06:19.674Z,20.15
2023-03-06T21:08:49.751Z,18.73
2023-03-06T21:11:18.213Z,20.55
2023-03-06T21:13:46.547Z,18.57
2023-03-06T21:16:16.447Z,19.00
2023-03-06T21:18:44.768Z,17.83
2023-03-06T21:21:14.799Z,19.13
2023-03-06T21:23:43.081Z,18.17
2023-03-06T21:26:14.974Z,19.80
2023-03-06T21:28:43.355Z,20.95
2023-03-06T21:31:13.228Z,17.60
2023-03-06T21:33:41.399Z,20.05
2023-03-06T21:36:10.406Z,18.52
2023-03-06T21:38:38.459Z,19.53
2023-03-06T21:41:11.711Z,18.15
2023-03-06T21:43:41.752Z,18.42
2023-03-06T21:46:10.524Z,20.40
2023-03-06T21:48:38.616Z,21.08
2023-03-06T21:51:08.868Z,17.37
2023-03-06T21:53:37.519Z,22.42
2023-03-06T21:56:06.321Z,19.70
2023-03-06T21:58:34.518Z,18.27
2023-03-06T22:01:09.505Z,20.65
2023-03-06T22:03:37.829Z,21.90
2023-03-06T22:06:10.890Z,22.85
2023-03-06T22:08:39.025Z,22.63
2023-03-06T22:11:09.443Z,20.10
2023-03-06T22:13:37.902Z,21.42
2023-03-06T22:16:08.735Z,22.90
2023-03-06T22:18:37.185Z,20.35
2023-03-06T22:21:09.185Z,27.90
2023-03-06T22:23:37.725Z,21.13
2023-03-06T22:26:07.858Z,20.48
2023-03-06T22:28:36.072Z,23.07
2023-03-06T22:31:08.330Z,24.40
2023-03-06T22:33:36.481Z,22.73
2023-03-06T22:36:07.586Z,21.75
2023-03-06T22:38:36.374Z,23.27
2023-03-06T22:41:05.028Z,21.47
2023-03-06T22:43:33.664Z,21.52
2023-03-06T22:46:03.070Z,20.17
2023-03-06T22:48:32.835Z,19.88
2023-03-06T22:51:05.020Z,22.77
2023-03-06T22:53:33.316Z,21.60
2023-03-06T22:56:02.711Z,21.63
2023-03-06T22:58:35.501Z,21.02
2023-03-06T23:01:08.315Z,21.75
2023-03-06T23:03:38.663Z,20.58
2023-03-06T23:06:08.565Z,20.73
2023-03-06T23:08:36.746Z,23.65
2023-03-06T23:11:09.913Z,24.83
2023-03-06T23:13:57.895Z,23.98
2023-03-06T23:16:44.772Z,20.25
2023-03-06T23:19:32.842Z,22.23
2023-03-06T23:22:20.111Z,22.55
2023-03-06T23:25:07.758Z,22.88
2023-03-06T23:27:36.851Z,21.98
2023-03-06T23:30:05.915Z,23.00
2023-03-06T23:32:37.132Z,20.50
2023-03-06T23:35:07.673Z,21.58
2023-03-06T23:37:35.942Z,22.95
2023-03-06T23:40:07.716Z,21.88
2023-03-06T23:42:36.017Z,22.02
2023-03-06T23:45:04.389Z,22.57
2023-03-06T23:47:33.233Z,25.40
2023-03-06T23:50:01.243Z,22.70
2023-03-06T23:52:30.854Z,20.60
2023-03-06T23:54:58.841Z,22.83
2023-03-06T23:57:27.171Z,24.43
2023-03-06T23:59:55.270Z,23.55
